Thomson, Illinois
Current Conditions -  °F | °C
As of 2:55 PM on Tuesday 25 Nov 2014 (Local Time) from KSFY Reporting Station
Clear Clear  
Wind Chill: 17°   Ceiling: Unl
Heat Index: 25°   Visibility: 10mi
Dew Point: 16°   Wind: 7mph
Humidity: 69%   Direction: 230°SW
Pressure: 30.15"   Gusts: NA
Location:  41.96°N, 90.1°W
Report Text: KSFY 252055Z AUTO 23006KT 10SM CLR M04/M09 A3015 RMK AO2 T10401089
Loading
Personal Weather Stations






























Interactive Weather Map New forecast layout! Learn more

10-Day Weather Forecast

Advertisements
Track Severe Weather on mobile